Condiciones actuales en los principales Aeropuertos de España-Datos Metar

 

LEAL - Alicante
Actualización: 23/01/2022 05:00
Partly Cloudy
Partly Cloudy
 Viento del N
Viento: N 9 km/h
Temperatura: 10°C
Wind Chill: 9°C
Rocío: 7°C
Humedad: 82%
Barómetro: 1027 hPa
Nubosidad: Partly Cloudy
Visibilidad: 10 km
Cloud details: Few Clouds 366 m
Partly Cloudy 1524 m
2022/01/23 04:00 LEAL 230400Z 36005KT 9999 FEW012 SCT050 10/07 Q1027 NOSIG
LEAB - Albacete
Actualización: 23/01/2022 05:00
Mostly Cloudy
Mostly Cloudy
 Viento del ESE
Viento: ESE 9 km/h
Temperatura: 5°C
Wind Chill: 3°C
Rocío: 4°C
Humedad: 93%
Barómetro: 1026 hPa
Nubosidad: Mostly Cloudy
Visibilidad: 10 km
Cloud details: Few Clouds 610 m
Mostly Cloudy 914 m
2022/01/23 04:00 LEAB 230400Z 11005KT 9999 FEW020 BKN030 05/04 Q1026 NOSIG
LEAM - Almería
Actualización: 23/01/2022 05:00
Few Clouds
Few Clouds
 Viento del NNE
Viento: NNE 11 km/h
Temperatura: 12°C
Rocío: 7°C
Humedad: 72%
Barómetro: 1026 hPa
Nubosidad: Few Clouds
Visibilidad: 10 km
Cloud details: Few Clouds 1829 m
2022/01/23 04:00 LEAM 230400Z 02006KT 9999 FEW060 12/07 Q1026
 
LEAS - Asturias/Aviles
Actualización: 23/01/2022 05:00
Despejado
Despejado
 Viento del SE
Viento: SE 9 km/h
Temperatura: 3°C
Wind Chill: 0°C
Rocío: 1°C
Humedad: 87%
Barómetro: 1027 hPa
Resumen: Despejado
Visibilidad: greater than 10 km
2022/01/23 04:00 LEAS 230400Z AUTO 14005KT CAVOK 03/01 Q1027
LEBZ - Badajoz/Talavera la Real
Actualización: 22/01/2022 21:00
NO Actualizado
Despejado
Despejado
 Viento del E
Viento: E 6 km/h
Temperatura: 8°C
Rocío: 3°C
Humedad: 71%
Barómetro: 1025 hPa
Resumen: Despejado
Visibilidad: greater than 10 km
2022/01/22 20:00 LEBZ 222000Z 09003KT CAVOK 08/03 Q1025
LEBL - Barcelona
Actualización: 23/01/2022 05:00
Despejado
Despejado
 Viento del NNO
Viento: NNO 19 km/h
Temperatura: 2°C
Wind Chill: -2°C
Rocío: -2°C
Humedad: 75%
Barómetro: 1029 hPa
Resumen: Despejado
Visibilidad: greater than 10 km
2022/01/23 04:00 LEBL 230400Z 33010KT 310V010 CAVOK 02/M02 Q1029 NOSIG
 
LEBB - Bilbao
Actualización: 23/01/2022 05:00
Despejado
Despejado
 Viento del E
Viento: E 6 km/h
Temperatura: -1°C
Rocío: -2°C
Humedad: 93%
Barómetro: 1029 hPa
Resumen: Despejado
Visibilidad: greater than 10 km
2022/01/23 04:00 LEBB 230400Z 09003KT 060V120 CAVOK M01/M02 Q1029 NOSIG
LEBG - Burgos/Villafría
Actualización: 23/01/2022 05:00
Despejado
Despejado
 Viento del calm
Viento: Calma
Temperatura: -4°C
Rocío: -6°C
Humedad: 86%
Barómetro: 1025 hPa
Nubosidad: Despejado
Visibilidad: 8 km
2022/01/23 04:00 LEBG 230400Z AUTO 00000KT 8000 NCD M04/M06 Q1025
LEBA - Córdoba
Actualización: 23/01/2022 05:00
Despejado
Despejado
 Viento del ESE
Viento: ESE 6 km/h
Temperatura: 3°C
Rocío: 1°C
Humedad: 87%
Barómetro: 1024 hPa
Resumen: Despejado
Visibilidad: greater than 10 km
2022/01/23 04:00 LEBA 230400Z AUTO 12003KT 070V150 CAVOK 03/01 Q1024
 
LEGE - Gerona
Actualización: 23/01/2022 05:00
Partly Cloudy
Partly Cloudy
 Viento del calm
Viento: Calma
Temperatura: -1°C
Rocío: -2°C
Humedad: 93%
Barómetro: 1029 hPa
Nubosidad: Partly Cloudy
Visibilidad: 8 km
2022/01/23 04:00 LEGE 230400Z 00000KT 8000 NSC M01/M02 Q1029
LEGR - Granada
Actualización: 23/01/2022 05:00
Despejado
Despejado
 Viento del calm
Viento: Calma
Temperatura: -2°C
Rocío: -2°C
Humedad: 100%
Barómetro: 1024 hPa
Resumen: Despejado
Visibilidad: greater than 10 km
2022/01/23 04:00 LEGR 230400Z AUTO 00000KT CAVOK M02/M02 Q1024
GCHI - Hierro
Actualización: 23/01/2022 05:00
Despejado
Despejado
 Viento del ONO
Viento: ONO 6 km/h
Temperatura: 18°C
Rocío: 13°C
Humedad: 73%
Barómetro: 1018 hPa
Resumen: Despejado
Visibilidad: greater than 10 km
2022/01/23 04:00 GCHI 230400Z AUTO 30003KT 270V330 CAVOK 18/13 Q1018
 
LEIB - Ibiza
Actualización: 23/01/2022 05:00
Few Clouds
Few Clouds
 Viento del NNO
Viento: NNO 4 km/h
Temperatura: 8°C
Rocío: 6°C
Humedad: 87%
Barómetro: 1028 hPa
Nubosidad: Few Clouds
Visibilidad: 10 km
Cloud details: Few Clouds 1341 m
2022/01/23 04:00 LEIB 230400Z AUTO 34002KT 9999 FEW044/// 08/06 Q1028
LEJR - Jerez de la Frontera
Actualización: 23/01/2022 05:30
Despejado
Despejado
 Viento del NNO
Viento: NNO 9 km/h
Temperatura: 7°C
Wind Chill: 6°C
Rocío: 5°C
Humedad: 87%
Barómetro: 1021 hPa
Resumen: Despejado
Visibilidad: greater than 10 km
2022/01/23 04:30 LEJR 230430Z 34005KT CAVOK 07/05 Q1021
LECO - A Coruña
Actualización: 23/01/2022 05:00
Despejado
Despejado
 Viento del S
Viento: S 7 km/h
Temperatura: 0°C
Wind Chill: -3°C
Rocío: -1°C
Humedad: 93%
Barómetro: 1026 hPa
Resumen: Despejado
Visibilidad: greater than 10 km
2022/01/23 04:00 LECO 230400Z AUTO 18004KT CAVOK 00/M01 Q1026
 
GCLA - La Palma
Actualización: 23/01/2022 05:00
Despejado
Despejado
 Viento del NO
Viento: NO 15 km/h
Temperatura: 18°C
Rocío: 14°C
Humedad: 78%
Barómetro: 1018 hPa
Resumen: Despejado
Visibilidad: greater than 10 km
2022/01/23 04:00 GCLA 230400Z AUTO 31008KT CAVOK 18/14 Q1018
GCRR - Lanzarote
Actualización: 23/01/2022 05:00
Despejado
Despejado
 Viento del NNO
Viento: NNO 11 km/h
Temperatura: 15°C
Rocío: 12°C
Humedad: 82%
Barómetro: 1019 hPa
Resumen: Despejado
Visibilidad: greater than 10 km
2022/01/23 04:00 GCRR 230400Z AUTO 33006KT CAVOK 15/12 Q1019
GCLP - Las Palmas
Actualización: 23/01/2022 05:00
Despejado
Despejado
 Viento del O
Viento: O 6 km/h
Temperatura: 15°C
Rocío: 10°C
Humedad: 72%
Barómetro: 1019 hPa
Resumen: Despejado
Visibilidad: greater than 10 km
2022/01/23 04:00 GCLP 230400Z 27003KT CAVOK 15/10 Q1019 NOSIG
 
LELN - León
Actualización: 23/01/2022 05:00
Despejado
Despejado
 Viento del NNO
Viento: NNO 4 km/h
Temperatura: -6°C
Rocío: -8°C
Humedad: 86%
Barómetro: 1025 hPa
Nubosidad: Despejado
Visibilidad: 8 km
2022/01/23 04:00 LELN 230400Z AUTO 34002KT 8000 NCD M06/M08 Q1025
LELO - Logroño
Actualización: 23/01/2022 05:00
Despejado
Despejado
 Viento del calm
Viento: Calma
Temperatura: -4°C
Rocío: -4°C
Humedad: 100%
Barómetro: 1029 hPa
Resumen: Despejado
Visibilidad: greater than 10 km
2022/01/23 04:00 LELO 230400Z AUTO 00000KT CAVOK M04/M04 Q1029
LECV - Madrid/Colmenar
Actualización: 22/01/2022 18:30
NO Actualizado
Despejado
Despejado
 Viento del SE
Viento: SE 6 km/h
Temperatura: 5°C
Rocío: -1°C
Humedad: 66%
Barómetro: 1026 hPa
Resumen: Despejado
Visibilidad: greater than 10 km
2022/01/22 17:30 LECV 221730Z 13003KT CAVOK 05/M01 Q1026
 
LEMD - Madrid/Barajas
Actualización: 23/01/2022 05:00
Despejado
Despejado
 Viento del N
Viento: N 4 km/h
Temperatura: -2°C
Rocío: -4°C
Humedad: 86%
Barómetro: 1026 hPa
Resumen: Despejado
Visibilidad: greater than 10 km
2022/01/23 04:00 LEMD 230400Z 35002KT CAVOK M02/M04 Q1026 NOSIG
LEVS - Madrid/Cuatro Vientos
Actualización: 23/01/2022 05:00
Mostly Cloudy
Mostly Cloudy
 Viento del N
Viento: N 7 km/h
Temperatura: 2°C
Wind Chill: 0°C
Rocío: -1°C
Humedad: 81%
Barómetro: 1026 hPa
Nubosidad: Mostly Cloudy
Visibilidad: 10 km
Cloud details: Mostly Cloudy 518 m
2022/01/23 04:00 LEVS 230400Z AUTO 01004KT 9999 BKN017 02/M01 Q1026
LEGT - Madrid/Getafe
Actualización: 22/01/2022 19:00
NO Actualizado
Despejado
Despejado
 Viento del NE
Viento: NE 6 km/h
Temperatura: 7°C
Rocío: 0°C
Humedad: 61%
Barómetro: 1027 hPa
Resumen: Despejado
Visibilidad: greater than 10 km
2022/01/22 18:00 LEGT 221800Z 04003KT CAVOK 07/M00 Q1027
 
LETO - Madrid/Torrejón
Actualización: 23/01/2022 05:00
Despejado
Despejado
 Viento del NNE
Viento: NNE 6 km/h
Temperatura: -5°C
Rocío: -6°C
Humedad: 93%
Barómetro: 1027 hPa
Resumen: Despejado
Visibilidad: greater than 10 km
2022/01/23 04:00 LETO 230400Z 03003KT CAVOK M05/M06 Q1027 NOSIG
LEMG - Málaga
Actualización: 23/01/2022 05:00
Mostly Cloudy
Mostly Cloudy
 Viento del E
Viento: E 13 km/h
Temperatura: 13°C
Rocío: 9°C
Humedad: 77%
Barómetro: 1025 hPa
Nubosidad: Mostly Cloudy
Visibilidad: 10 km
Cloud details: Partly Cloudy 671 m
Mostly Cloudy 1372 m
2022/01/23 04:00 LEMG 230400Z 08007KT 050V110 9999 SCT022 BKN045 13/09 Q1025 NOSIG
GEML - Melilla
Actualización: 23/01/2022 05:00
Few Clouds
Few Clouds
 Viento del E
Viento: E 9 km/h
Temperatura: 14°C
Rocío: 10°C
Humedad: 77%
Barómetro: 1024 hPa
Nubosidad: Few Clouds
Visibilidad: 10 km
Cloud details: Few Clouds 518 m
2022/01/23 04:00 GEML 230400Z AUTO 08005KT 040V130 9999 FEW017 14/10 Q1024
 
LEMH - Mahón
Actualización: 23/01/2022 05:00
Partly Cloudy
Partly Cloudy
 Viento del NNE
Viento: NNE 6 km/h
Temperatura: 5°C
Rocío: 3°C
Humedad: 87%
Barómetro: 1028 hPa
Nubosidad: Partly Cloudy
Visibilidad: 10 km
Cloud details: Partly Cloudy 1463 m
2022/01/23 04:00 LEMH 230400Z AUTO 02003KT 9999 SCT048/// 05/03 Q1028
LEMO - Morón de La Frontera
Actualización: 23/01/2022 05:30
Despejado
Despejado
 Viento del calm
Viento: Calma
Temperatura: 3°C
Rocío: 1°C
Humedad: 87%
Barómetro: 1021 hPa
Resumen: Despejado
Visibilidad: greater than 10 km
2022/01/23 04:30 LEMO 230430Z 00000KT CAVOK 03/01 Q1021 NOSIG
LEMI - Murcia/Corvera
Actualización: 23/01/2022 05:00
Cubierto
Cubierto
 Viento del NNE
Viento: NNE 11 km/h
Temperatura: 9°C
Wind Chill: 7°C
Rocío: 7°C
Humedad: 87%
Barómetro: 1027 hPa
Nubosidad: Cubierto
Visibilidad: 10 km
Cloud details: Partly Cloudy 671 m
Mostly Cloudy 1006 m
Cubierto 1737 m
2022/01/23 04:00 LEMI 230400Z AUTO 03006KT 9999 SCT022 BKN033 OVC057 09/07 Q1027
 
LERI - Murcia/Alcantarilla
Actualización: 22/01/2022 19:00
NO Actualizado
Light drizzle, Mist, Cubierto
Light drizzle, Mist, Cubierto
 Viento del calm
Viento: Calma
Temperatura: 9°C
Rocío: 9°C
Humedad: 100%
Barómetro: 1029 hPa
Resumen: Light drizzle, Mist
Nubosidad: Cubierto
Visibilidad: 4 km
Cloud details: Few Clouds 213 m
Cubierto 305 m
2022/01/22 18:00 LERI 221800Z 00000KT 3800 -DZ BR FEW007 OVC010 09/09 Q1029 NOSIG
LELC - Murcia/San Javier
Actualización: 23/01/2022 05:00
Mostly Cloudy
Mostly Cloudy
 Viento del E
Viento: E 15 km/h
Temperatura: 13°C
Rocío: 8°C
Humedad: 72%
Barómetro: 1027 hPa
Nubosidad: Mostly Cloudy
Visibilidad: 10 km
Cloud details: Partly Cloudy 914 m
Mostly Cloudy 1158 m
2022/01/23 04:00 LELC 230400Z AUTO 09008KT 050V140 9999 SCT030 BKN038 13/08 Q1027
LEPA - Palma de Mallorca
Actualización: 23/01/2022 05:00
Few Clouds
Few Clouds
 Viento del NNE
Viento: NNE 6 km/h
Temperatura: 3°C
Rocío: 2°C
Humedad: 93%
Barómetro: 1028 hPa
Nubosidad: Few Clouds
Visibilidad: 10 km
Cloud details: Few Clouds 1372 m
2022/01/23 04:00 LEPA 230400Z 03003KT 9999 FEW045 03/02 Q1028 NOSIG
 
LEPP - Pamplona
Actualización: 23/01/2022 05:00
Despejado
Despejado
 Viento del varies
Viento: varies 2 km/h
Temperatura: -4°C
Rocío: -5°C
Humedad: 93%
Barómetro: 1028 hPa
Resumen: Despejado
Visibilidad: greater than 10 km
2022/01/23 04:00 LEPP 230400Z AUTO VRB01KT CAVOK M04/M05 Q1028
LERS - Reus
Actualización: 23/01/2022 05:00
Despejado
Despejado
 Viento del NNE
Viento: NNE 11 km/h
Temperatura: 0°C
Wind Chill: -4°C
Rocío: -4°C
Humedad: 75%
Barómetro: 1029 hPa
Resumen: Despejado
Visibilidad: greater than 10 km
2022/01/23 04:00 LERS 230400Z AUTO 02006KT CAVOK M00/M04 Q1029
LERT - Rota
Actualización: 23/01/2022 05:00
Despejado
Despejado
 Viento del E
Viento: E 26 km/h
Temperatura: 13°C
Rocío: 8°C
Humedad: 72%
Barómetro: 1021 hPa
Resumen: Despejado
Visibilidad: greater than 10 km
2022/01/23 04:00 LERT 230400Z 10014KT CAVOK 13/08 Q1021 NOSIG
 
LELL - Sabadell
Actualización: 23/01/2022 05:00
Despejado
Despejado
 Viento del ONO
Viento: ONO 6 km/h
Temperatura: -2°C
Rocío: -4°C
Humedad: 86%
Barómetro: 1029 hPa
Resumen: Despejado
Visibilidad: greater than 10 km
2022/01/23 04:00 LELL 230400Z AUTO 29003KT 260V320 CAVOK M02/M04 Q1029
LESA - Salamanca
Actualización: 23/01/2022 05:00
Despejado
Despejado
 Viento del ESE
Viento: ESE 4 km/h
Temperatura: -6°C
Rocío: -7°C
Humedad: 93%
Barómetro: 1025 hPa
Nubosidad: Despejado
Visibilidad: 8 km
2022/01/23 04:00 LESA 230400Z AUTO 12002KT 8000 NCD M06/M07 Q1025
LESO - San Sebastián
Actualización: 23/01/2022 05:00
Despejado
Despejado
 Viento del S
Viento: S 6 km/h
Temperatura: -1°C
Rocío: -1°C
Humedad: 100%
Barómetro: 1029 hPa
Nubosidad: Despejado
Visibilidad: 9 km
2022/01/23 04:00 LESO 230400Z AUTO 18003KT 9000 NCD M01/M01 Q1029
 
LEXJ - Santander
Actualización: 23/01/2022 05:00
Despejado
Despejado
 Viento del SE
Viento: SE 6 km/h
Temperatura: 0°C
Rocío: -1°C
Humedad: 93%
Barómetro: 1028 hPa
Nubosidad: Despejado
Visibilidad: 6 km
2022/01/23 04:00 LEXJ 230400Z AUTO 13003KT 100V160 6000 NCD 00/M01 Q1028
LEPA - Palma de Mallorca
Actualización: 23/01/2022 05:00
Few Clouds
Few Clouds
 Viento del NNE
Viento: NNE 6 km/h
Temperatura: 3°C
Rocío: 2°C
Humedad: 93%
Barómetro: 1028 hPa
Nubosidad: Few Clouds
Visibilidad: 10 km
Cloud details: Few Clouds 1372 m
2022/01/23 04:00 LEPA 230400Z 03003KT 9999 FEW045 03/02 Q1028 NOSIG
LEPP - Pamplona
Actualización: 23/01/2022 05:00
Despejado
Despejado
 Viento del varies
Viento: varies 2 km/h
Temperatura: -4°C
Rocío: -5°C
Humedad: 93%
Barómetro: 1028 hPa
Resumen: Despejado
Visibilidad: greater than 10 km
2022/01/23 04:00 LEPP 230400Z AUTO VRB01KT CAVOK M04/M05 Q1028
 
LEST - Santiago de Compostela
Actualización: 23/01/2022 05:00
Despejado
Despejado
 Viento del varies
Viento: varies 2 km/h
Temperatura: -1°C
Rocío: -2°C
Humedad: 93%
Barómetro: 1025 hPa
Resumen: Despejado
Visibilidad: greater than 10 km
2022/01/23 04:00 LEST 230400Z VRB01KT CAVOK M01/M02 Q1025 NOSIG
LEZL - Sevilla
Actualización: 23/01/2022 05:00
Despejado
Despejado
 Viento del NE
Viento: NE 17 km/h
Temperatura: 7°C
Wind Chill: 4°C
Rocío: 4°C
Humedad: 81%
Barómetro: 1022 hPa
Resumen: Despejado
Visibilidad: greater than 10 km
2022/01/23 04:00 LEZL 230400Z AUTO 05009KT CAVOK 07/04 Q1022
GCXO - Tenerife
Actualización: 23/01/2022 05:00
Despejado
Despejado
 Viento del O
Viento: O 6 km/h
Temperatura: 13°C
Rocío: 9°C
Humedad: 77%
Barómetro: 1020 hPa
Resumen: Despejado
Visibilidad: greater than 10 km
2022/01/23 04:00 GCXO 230400Z AUTO 27003KT CAVOK 13/09 Q1020
 
GCTS - Tenerife-Sur
Actualización: 23/01/2022 05:00
Few Clouds
Few Clouds
 Viento del varies
Viento: varies 4 km/h
Temperatura: 16°C
Rocío: 10°C
Humedad: 68%
Barómetro: 1018 hPa
Nubosidad: Few Clouds
Visibilidad: 10 km
Cloud details: Few Clouds 457 m
2022/01/23 04:00 GCTS 230400Z VRB02KT 9999 FEW015 16/10 Q1018 NOSIG
LEVC - Valencia
Actualización: 23/01/2022 05:00
Partly Cloudy
Partly Cloudy
 Viento del O
Viento: O 6 km/h
Temperatura: 7°C
Rocío: 4°C
Humedad: 81%
Barómetro: 1028 hPa
Nubosidad: Partly Cloudy
Visibilidad: 10 km
Cloud details: Few Clouds 975 m
Partly Cloudy 1981 m
2022/01/23 04:00 LEVC 230400Z 28003KT 9999 FEW032 SCT065 07/04 Q1028 NOSIG
LEVD - Valladolid
Actualización: 23/01/2022 05:00
Despejado
Despejado
 Viento del E
Viento: E 9 km/h
Temperatura: -4°C
Wind Chill: -8°C
Rocío: -5°C
Humedad: 93%
Barómetro: 1024 hPa
Resumen: Despejado
Visibilidad: greater than 10 km
2022/01/23 04:00 LEVD 230400Z AUTO 09005KT CAVOK M04/M05 Q1024
 
LEVX - Vigo
Actualización: 23/01/2022 05:00
Despejado
Despejado
 Viento del OSO
Viento: OSO 7 km/h
Temperatura: 4°C
Wind Chill: 2°C
Rocío: -1°C
Humedad: 70%
Barómetro: 1025 hPa
Resumen: Despejado
Visibilidad: greater than 10 km
2022/01/23 04:00 LEVX 230400Z 25004KT 210V280 CAVOK 04/M01 Q1025 NOSIG
LEVT - Vitoria
Actualización: 23/01/2022 05:00
Partly Cloudy
Partly Cloudy
 Viento del SSE
Viento: SSE 2 km/h
Temperatura: -5°C
Rocío: -5°C
Humedad: 100%
Barómetro: 1027 hPa
Nubosidad: Partly Cloudy
Visibilidad: 7 km
2022/01/23 04:00 LEVT 230400Z 15001KT 7000 NSC M05/M05 Q1027
LEZG - Zaragoza
Actualización: 23/01/2022 05:00
Despejado
Despejado
 Viento del SSE
Viento: SSE 7 km/h
Temperatura: -2°C
Wind Chill: -6°C
Rocío: -4°C
Humedad: 86%
Barómetro: 1029 hPa
Resumen: Despejado
Visibilidad: greater than 10 km
2022/01/23 04:00 LEZG 230400Z 15004KT CAVOK M02/M04 Q1029

La estación de MeteoMurcia.com, publica sus datos en los siguientes proyectos:

Weather Underground PWS IMURCIAP2 Meteoclimatic www.awekas.at

W3Counter
Web Analytics